AirNav   TITAN Aviation Fuels
 
 483 users online  

79LA Lakeview Regional Medical Center Heliport
Covington, Louisiana, USA

GOING TO COVINGTON?


FAA INFORMATION EFFECTIVE 08 SEPTEMBER 2022

Location

FAA Identifier: 79LA
Lat/Long: 30-24-42.8900N 090-04-47.6700W
30-24.714833N 090-04.794500W
30.4119139,-90.0799083
(estimated)
Elevation: 20 ft. / 6 m (estimated)
Variation: 02E (1995)
From city: 2 miles SE of COVINGTON, LA
Time zone: UTC -5 (UTC -6 during Standard Time)
Zip code: 70471

Heliport Operations

Heliport use: Private use, MEDICAL.
Activation date: 09/1994
Control tower: no
ARTCC: HOUSTON CENTER
FSS: DE RIDDER FLIGHT SERVICE STATION
Attendance: UNATNDD
Segmented circle: yes

Heliport Communications

WX ASOS at ASD (14 nm E): 132.475 (985-643-7263)
WX AWOS-3PT at HDC (19 nm W): PHONE 985-277-5670

Nearby radio navigation aids

VOR radial/distance  VOR name  Freq  Var
PCUr239/20.2PICAYUNE VOR/DME113.9505E
RQRr052/32.8RESERVE VOR/DME110.8002E
HRVr351/33.9HARVEY VORTAC114.1002E

 
NDB name  Hdg/Dist  Freq  Var  ID
BOGALUSA202/30.335300WGVB --. ...- -...

Heliport Services

Runway Information

Helipad H1

Dimensions: 50 x 50 ft. / 15 x 15 m
Surface: concrete
Latitude: 30-24.714833N
Longitude: 090-04.794500W
Elevation: 20.0 ft.
Traffic pattern: leftleft

Heliport Ownership and Management from official FAA records

Ownership: Privately-owned
Owner: UNIVERSITY HEALTHCARE SYSTEM, LLC
95 JUGDE TANNER ROAD
NEW ORLEANS, LA 70112
Phone (985) 867-4120
Manager: CLARENCE DOLESE
95 JUDGE TANNER ROAD
COVINGTON, LA 70433
Phone (985) 867-4120

Additional Remarks

A52-H1 70 FT TREES +55 FT NORTH, EAST & WEST; 35 FT LGT POLE 150 FT SOUTH & 80 FT BLDG 240 FT FM HELIPAD.
FOR CD CTC NEW ORLEANS APCH AT 504-471-4350.

Instrument Procedures

There are no published instrument procedures at 79LA.

Some nearby airports with instrument procedures:

KASD - Slidell Airport (14 nm E)
KHDC - Hammond Northshore Regional Airport (19 nm W)
KNEW - Lakefront Airport (22 nm S)
KMJD - Picayune Municipal Airport (23 nm E)
KBXA - George R Carr Memorial Air Field (27 nm NE)
 
Loc | Ops | Rwys | IFR | FBO | Links
Com | Nav | Svcs | Stats | Notes
Area around 79LA (Lakeview Regional Medical Center Heliport)
 
Road maps at: MapQuest Bing Google
 
Aerial photo
No photo
 
Sectional chart

 
Airport distance calculator
Flying to Lakeview Regional Medical Center Heliport? Find the distance to fly.

From to 79LA

Sunrise and sunset
Times for 02-Oct-2022
 Local
(UTC-5)
 Zulu
(UTC)
Morning civil twilight06:3111:31
Sunrise06:5511:55
Sunset18:4423:44
Evening civil twilight19:0800:08

Current date and time
Zulu (UTC)  02-Oct-2022 10:56:08
Local (UTC-5)  02-Oct-2022 05:56:08
 
METAR
KHDC 
19nm W 
021018Z AUTO 00000KT 10SM CLR 10/09 A3005 RMK AO2
KASD 
19nm SE 
020953Z AUTO 00000KT 10SM CLR 10/08 A3002 RMK AO2 SLP166 T01000083
KNEW 
22nm S 
020953Z AUTO 03011KT 10SM CLR 21/13 A3003 RMK AO2 SLP162 T02110128
KMJD 
23nm E 
021035Z AUTO 00000KT 10SM CLR 10/10 A3002 RMK AO2
KMSY 
26nm S 
020953Z 34003KT 10SM CLR 15/14 A3003 RMK AO2 SLP171 T01500139
KBXA 
27nm NE 
021035Z AUTO 00000KT 10SM CLR 09/08 A3005 RMK AO2 T00920079
K7N0 
28nm S 
020956Z AUTO VRB03KT 10SM CLR 19/13 A3004 RMK AO2 SLP171 T01940128 PNO $
KAPS 
33nm SW 
021034Z AUTO 00000KT 12/11 A3005 RMK AO2 PWINO
KHSA 
33nm E 
020150Z 00000KT 10SM SCT040 14/11 A2997
KNBG 
36nm S 
012155Z 34008KT 10SM CLR 28/09 A2994 RMK AO2 SLP136 T02780089 $
TAF
KHDC 
19nm W 
020521Z 0206/0306 00000KT P6SM SKC FM021600 35006KT P6SM SKC FM022300 00000KT P6SM SKC
KASD 
19nm SE 
020521Z 0206/0306 00000KT P6SM SKC FM021500 36008KT P6SM SKC FM030000 00000KT P6SM SKC
NOTAMs
Click for the latest NOTAMs
NOTAMs are issued by the DoD/FAA and will open in a separate window not controlled by AirNav.

 

 
 

Would you like to see your business listed on this page?

 If your business provides an interesting product or service to pilots, flight crews, aircraft, or users of the Lakeview Regional Medical Center Heliport, you should consider listing it here.  To start the listing process, click on the button below
 
Add a business
 

Other Pages about Lakeview Regional Medical Center Heliport

Update a link
 
Copyright © AirNav, LLC. All rights reserved. Privacy Policy  Contact